Time;durP1;ratioP1;P1;durP2;ratioP2;P2;SDS_P1;SDS_P2;PMS_P1;PMS_P2;Temp;Humidity;BMP_temperature;BMP_pressure;BME280_temperature;BME280_humidity;BME280_pressure;Samples;Min_cycle;Max_cycle;Signal;HPM_P1;HPM_P2
2023/04/10 00:00:35;;;;;;;35.17;31.37;;;;;;;;;;4963720;28;20235;-87
2023/04/10 00:03:01;;;;;;;36.50;31.50;;;;;;;;;;5020329;28;20301;-83
2023/04/10 00:05:27;;;;;;;38.47;31.90;;;;;;;;;;4993343;28;20574;-84
2023/04/10 00:07:56;;;;;;;38.67;32.47;;;;;;;;;;4973794;28;20209;-84
2023/04/10 00:10:25;;;;;;;35.73;31.03;;;;;;;;;;4995593;28;20643;-84
2023/04/10 00:12:52;;;;;;;35.10;31.13;;;;;;;;;;5010758;28;20232;-87
2023/04/10 00:15:18;;;;;;;37.87;32.53;;;;;;;;;;4993501;28;20221;-85
2023/04/10 00:17:44;;;;;;;40.13;32.63;;;;;;;;;;4994676;28;20222;-85
2023/04/10 00:20:12;;;;;;;38.07;32.50;;;;;;;;;;4981729;28;20217;-86
2023/04/10 00:22:41;;;;;;;37.73;31.77;;;;;;;;;;5008267;28;20257;-86
2023/04/10 00:25:07;;;;;;;36.03;30.97;;;;;;;;;;4988435;28;20305;-83
2023/04/10 00:27:35;;;;;;;38.57;32.97;;;;;;;;;;4971141;28;20746;-88
2023/04/10 00:30:03;;;;;;;37.47;31.90;;;;;;;;;;4962988;28;20228;-84
2023/04/10 00:32:31;;;;;;;41.60;33.03;;;;;;;;;;4970970;28;20214;-82
2023/04/10 00:34:59;;;;;;;39.97;33.80;;;;;;;;;;4981594;28;20628;-83
2023/04/10 00:37:27;;;;;;;38.63;32.50;;;;;;;;;;4986772;28;20235;-83
2023/04/10 00:39:55;;;;;;;39.80;33.03;;;;;;;;;;4970718;28;20223;-84
2023/04/10 00:42:21;;;;;;;41.00;34.07;;;;;;;;;;4987412;28;20247;-84
2023/04/10 00:44:48;;;;;;;40.60;33.30;;;;;;;;;;4971149;28;20289;-86
2023/04/10 00:47:16;;;;;;;41.77;35.27;;;;;;;;;;4984156;28;20221;-85
2023/04/10 00:49:42;;;;;;;40.07;33.87;;;;;;;;;;4977071;28;20305;-83
2023/04/10 00:52:10;;;;;;;40.40;32.50;;;;;;;;;;4977695;28;20213;-84
2023/04/10 00:54:38;;;;;;;40.53;32.53;;;;;;;;;;4985712;28;20588;-84
2023/04/10 00:57:08;;;;;;;41.03;33.67;;;;;;;;;;4978384;28;20213;-86
2023/04/10 00:59:34;;;;;;;42.60;34.60;;;;;;;;;;4973827;28;20264;-85
2023/04/10 01:02:00;;;;;;;39.90;32.97;;;;;;;;;;4962838;28;20225;-86
2023/04/10 01:04:27;;;;;;;42.73;33.73;;;;;;;;;;4989764;28;20217;-85
2023/04/10 01:07:17;;;;;;;42.03;33.97;;;;;;;;;;5009778;28;21077;-85
2023/04/10 01:09:50;;;;;;;40.73;32.57;;;;;;;;;;4960947;28;20609;-84
2023/04/10 01:12:33;;;;;;;42.70;33.70;;;;;;;;;;4978634;28;20271;-85
2023/04/10 01:15:09;;;;;;;40.13;33.60;;;;;;;;;;5011935;28;20222;-85
2023/04/10 01:17:59;;;;;;;39.60;33.63;;;;;;;;;;4955973;28;20233;-83
2023/04/10 01:20:30;;;;;;;40.33;33.47;;;;;;;;;;4983152;28;20241;-84
2023/04/10 01:23:24;;;;;;;41.00;34.07;;;;;;;;;;4985330;28;20362;-84
2023/04/10 01:26:00;;;;;;;40.03;32.97;;;;;;;;;;5025398;28;20741;-84
2023/04/10 01:28:40;;;;;;;41.37;33.73;;;;;;;;;;4986651;28;20320;-82
2023/04/10 01:31:07;;;;;;;42.20;33.77;;;;;;;;;;5002301;28;20224;-83
2023/04/10 01:33:38;;;;;;;44.00;35.87;;;;;;;;;;4975813;28;20217;-85
2023/04/10 01:36:04;;;;;;;45.07;35.33;;;;;;;;;;4969133;28;20225;-83
2023/04/10 01:38:30;;;;;;;42.93;33.70;;;;;;;;;;4975826;28;20228;-84
2023/04/10 01:40:55;;;;;;;42.23;35.03;;;;;;;;;;4999845;28;20221;-84
2023/04/10 01:43:30;;;;;;;42.87;34.20;;;;;;;;;;4961280;28;20225;-85
2023/04/10 01:45:59;;;;;;;44.07;34.77;;;;;;;;;;4991032;28;20333;-84
2023/04/10 01:48:25;;;;;;;46.20;36.83;;;;;;;;;;4955918;28;20229;-87
2023/04/10 01:50:57;;;;;;;41.77;34.23;;;;;;;;;;4960893;28;20288;-85
2023/04/10 01:53:23;;;;;;;45.17;37.17;;;;;;;;;;4964688;28;20236;-85
2023/04/10 01:55:49;;;;;;;43.43;35.30;;;;;;;;;;4984028;28;20213;-86
2023/04/10 01:58:17;;;;;;;44.23;35.53;;;;;;;;;;4959653;28;20233;-85
2023/04/10 02:00:43;;;;;;;44.13;36.07;;;;;;;;;;5001131;28;20248;-85
2023/04/10 02:03:12;;;;;;;46.43;35.10;;;;;;;;;;4976119;28;20213;-86
2023/04/10 02:05:50;;;;;;;47.03;38.00;;;;;;;;;;4946845;28;20228;-85
2023/04/10 02:08:37;;;;;;;44.50;37.17;;;;;;;;;;5007605;28;20275;-83
2023/04/10 02:11:11;;;;;;;46.83;37.17;;;;;;;;;;4960113;28;20289;-84
2023/04/10 02:13:36;;;;;;;45.67;36.80;;;;;;;;;;4983614;28;20285;-84
2023/04/10 02:16:05;;;;;;;49.03;37.60;;;;;;;;;;4972362;28;20225;-83
2023/04/10 02:18:35;;;;;;;46.67;37.50;;;;;;;;;;4974408;28;20221;-83
2023/04/10 02:21:01;;;;;;;44.90;37.53;;;;;;;;;;4997642;28;20217;-83
2023/04/10 02:23:29;;;;;;;45.57;37.30;;;;;;;;;;4964666;28;20224;-84
2023/04/10 02:25:57;;;;;;;49.03;36.60;;;;;;;;;;5006820;28;20729;-84
2023/04/10 02:28:23;;;;;;;45.60;37.00;;;;;;;;;;4958674;28;20292;-85
2023/04/10 02:30:50;;;;;;;41.50;35.63;;;;;;;;;;4977734;28;20221;-84
2023/04/10 02:33:16;;;;;;;43.83;37.37;;;;;;;;;;4975323;28;20272;-83
2023/04/10 02:35:44;;;;;;;42.97;35.00;;;;;;;;;;4959170;28;20213;-88
2023/04/10 02:38:15;;;;;;;43.27;36.00;;;;;;;;;;4975844;28;20222;-84
2023/04/10 02:40:45;;;;;;;48.37;37.20;;;;;;;;;;4969049;28;20280;-86
2023/04/10 02:43:15;;;;;;;47.07;37.23;;;;;;;;;;4960375;28;20209;-84
2023/04/10 02:45:49;;;;;;;45.37;36.57;;;;;;;;;;4946986;28;20316;-85
2023/04/10 02:48:23;;;;;;;45.67;37.03;;;;;;;;;;4984612;28;20225;-84
2023/04/10 02:50:56;;;;;;;41.47;34.67;;;;;;;;;;4946720;28;20221;-85
2023/04/10 02:53:22;;;;;;;40.60;34.37;;;;;;;;;;4966764;28;20301;-86
2023/04/10 02:55:53;;;;;;;43.40;35.67;;;;;;;;;;5007033;28;20706;-85
2023/04/10 02:58:20;;;;;;;42.77;35.07;;;;;;;;;;4971019;28;20279;-85
2023/04/10 03:00:50;;;;;;;40.47;35.03;;;;;;;;;;4967502;28;20228;-86
2023/04/10 03:03:24;;;;;;;41.17;34.53;;;;;;;;;;4950040;28;20234;-86
2023/04/10 03:05:55;;;;;;;41.93;33.53;;;;;;;;;;4980061;28;20230;-86
2023/04/10 03:08:29;;;;;;;42.63;34.17;;;;;;;;;;4976425;28;20240;-87
2023/04/10 03:10:57;;;;;;;39.97;33.83;;;;;;;;;;4991366;28;20221;-85
2023/04/10 03:13:22;;;;;;;47.63;35.47;;;;;;;;;;4985164;28;20221;-86
2023/04/10 03:15:50;;;;;;;37.40;32.90;;;;;;;;;;4961445;28;20223;-86
2023/04/10 03:18:16;;;;;;;42.63;35.27;;;;;;;;;;4958700;28;20213;-85
2023/04/10 03:20:44;;;;;;;43.43;34.83;;;;;;;;;;5003856;28;20227;-85
2023/04/10 03:23:11;;;;;;;40.77;33.47;;;;;;;;;;4961938;28;20218;-85
2023/04/10 03:25:37;;;;;;;40.83;34.20;;;;;;;;;;4969981;28;20279;-85
2023/04/10 03:28:05;;;;;;;41.17;34.53;;;;;;;;;;4963196;28;20221;-85
2023/04/10 03:30:34;;;;;;;42.13;33.80;;;;;;;;;;4995718;28;20221;-85
2023/04/10 03:33:02;;;;;;;43.10;33.90;;;;;;;;;;4994334;28;20217;-85
2023/04/10 03:35:27;;;;;;;46.27;35.20;;;;;;;;;;4994202;28;20290;-85
2023/04/10 03:37:53;;;;;;;41.93;35.00;;;;;;;;;;4969109;28;20263;-84
2023/04/10 03:40:19;;;;;;;45.33;35.83;;;;;;;;;;4981055;28;20248;-85
2023/04/10 03:42:45;;;;;;;45.13;34.83;;;;;;;;;;4970988;28;20221;-84
2023/04/10 03:45:12;;;;;;;42.90;36.23;;;;;;;;;;4965281;28;20224;-83
2023/04/10 03:47:37;;;;;;;46.07;35.23;;;;;;;;;;4978512;28;20217;-85
2023/04/10 03:50:07;;;;;;;43.53;36.03;;;;;;;;;;4993590;28;20222;-83
2023/04/10 03:52:44;;;;;;;44.90;34.60;;;;;;;;;;4967947;28;20218;-84
2023/04/10 03:55:17;;;;;;;45.20;35.93;;;;;;;;;;4978362;28;20216;-83
2023/04/10 03:57:47;;;;;;;46.47;36.53;;;;;;;;;;4942002;28;20256;-84
2023/04/10 04:00:16;;;;;;;45.13;35.63;;;;;;;;;;4979134;28;20249;-84
2023/04/10 04:02:51;;;;;;;41.80;35.93;;;;;;;;;;4981030;28;20252;-85
2023/04/10 04:05:36;;;;;;;43.50;35.10;;;;;;;;;;5010072;28;20644;-85
2023/04/10 04:08:40;;;;;;;46.00;36.53;;;;;;;;;;4995213;28;20239;-84
2023/04/10 04:11:18;;;;;;;44.53;36.23;;;;;;;;;;4977755;28;20244;-84
2023/04/10 04:14:09;;;;;;;47.63;37.63;;;;;;;;;;4996483;28;20221;-84
2023/04/10 04:16:40;;;;;;;49.03;38.47;;;;;;;;;;4964224;28;20220;-85
2023/04/10 04:19:12;;;;;;;50.43;37.10;;;;;;;;;;4950552;28;20221;-84
2023/04/10 04:21:44;;;;;;;48.33;37.33;;;;;;;;;;4972679;28;20223;-84
2023/04/10 04:24:32;;;;;;;48.23;38.10;;;;;;;;;;4997227;28;20223;-83
2023/04/10 04:27:13;;;;;;;56.30;39.63;;;;;;;;;;5012995;28;20217;-85
2023/04/10 04:30:02;;;;;;;50.63;39.10;;;;;;;;;;4970898;28;20228;-85
2023/04/10 04:32:47;;;;;;;51.37;38.97;;;;;;;;;;4983349;28;20249;-83
2023/04/10 04:35:40;;;;;;;48.47;38.27;;;;;;;;;;4971452;28;20304;-84
2023/04/10 04:38:28;;;;;;;56.20;39.20;;;;;;;;;;4999035;28;20828;-83
2023/04/10 04:41:06;;;;;;;50.40;38.10;;;;;;;;;;5008465;28;20233;-86
2023/04/10 04:43:54;;;;;;;48.47;37.93;;;;;;;;;;4987611;28;20256;-86
2023/04/10 04:46:28;;;;;;;47.87;37.60;;;;;;;;;;4974854;28;20236;-83
2023/04/10 04:49:12;;;;;;;51.53;36.50;;;;;;;;;;4974564;28;20723;-85
2023/04/10 04:51:46;;;;;;;52.73;39.37;;;;;;;;;;4995500;28;20221;-84
2023/04/10 04:54:25;;;;;;;48.43;37.60;;;;;;;;;;4950448;28;20240;-84
2023/04/10 04:57:09;;;;;;;49.73;37.73;;;;;;;;;;4978472;28;20272;-86
2023/04/10 04:59:54;;;;;;;46.37;36.90;;;;;;;;;;5003813;28;20237;-83
2023/04/10 05:02:40;;;;;;;51.50;39.40;;;;;;;;;;4984966;28;20267;-82
2023/04/10 05:05:34;;;;;;;49.37;37.53;;;;;;;;;;4976706;28;20968;-85
2023/04/10 05:08:09;;;;;;;47.37;37.33;;;;;;;;;;4952017;28;20600;-85
2023/04/10 05:11:05;;;;;;;44.03;35.60;;;;;;;;;;4967728;28;20237;-84
2023/04/10 05:13:50;;;;;;;46.13;36.33;;;;;;;;;;5006516;28;20288;-84
2023/04/10 05:16:32;;;;;;;43.70;36.27;;;;;;;;;;4966282;28;20221;-83
2023/04/10 05:19:19;;;;;;;46.83;37.07;;;;;;;;;;4995233;28;20221;-84
2023/04/10 05:22:03;;;;;;;44.47;36.30;;;;;;;;;;5006175;28;20260;-83
2023/04/10 05:24:49;;;;;;;43.27;36.30;;;;;;;;;;4996920;28;20244;-85
2023/04/10 05:27:33;;;;;;;44.93;36.40;;;;;;;;;;4987210;28;20225;-84
2023/04/10 05:30:19;;;;;;;42.13;34.97;;;;;;;;;;4952129;28;20765;-85
2023/04/10 05:33:17;;;;;;;41.27;35.93;;;;;;;;;;4963915;28;20276;-84
2023/04/10 05:36:07;;;;;;;44.20;35.40;;;;;;;;;;4983058;28;20330;-84
2023/04/10 05:38:45;;;;;;;41.53;34.57;;;;;;;;;;4963532;28;20256;-83
2023/04/10 05:41:37;;;;;;;39.53;33.83;;;;;;;;;;4998487;28;20221;-83
2023/04/10 05:44:22;;;;;;;42.27;34.13;;;;;;;;;;4960384;28;20221;-84
2023/04/10 05:47:07;;;;;;;41.97;33.33;;;;;;;;;;4990894;28;20234;-85
2023/04/10 05:49:52;;;;;;;38.23;32.03;;;;;;;;;;4971150;28;20240;-84
2023/04/10 05:52:40;;;;;;;33.87;29.77;;;;;;;;;;4958281;28;20563;-84
2023/04/10 05:55:32;;;;;;;33.43;29.70;;;;;;;;;;4977751;28;20232;-84
2023/04/10 05:58:21;;;;;;;34.83;29.10;;;;;;;;;;5011946;28;20225;-84
2023/04/10 06:01:00;;;;;;;33.33;28.47;;;;;;;;;;4968307;28;20225;-85
2023/04/10 06:03:46;;;;;;;32.40;28.00;;;;;;;;;;4998309;28;20264;-84
2023/04/10 06:06:15;;;;;;;29.97;26.73;;;;;;;;;;4976898;28;20603;-84
2023/04/10 06:08:40;;;;;;;31.40;27.10;;;;;;;;;;4992574;28;20296;-86
2023/04/10 06:11:08;;;;;;;30.50;26.33;;;;;;;;;;4962831;28;20268;-85
2023/04/10 06:13:36;;;;;;;27.87;25.03;;;;;;;;;;4965096;28;20661;-85
2023/04/10 06:16:02;;;;;;;30.47;26.73;;;;;;;;;;4960772;28;20257;-84
2023/04/10 06:18:31;;;;;;;29.17;26.17;;;;;;;;;;4960385;28;20330;-85
2023/04/10 06:20:59;;;;;;;28.17;25.27;;;;;;;;;;4974952;28;20272;-85
2023/04/10 06:23:25;;;;;;;27.83;25.00;;;;;;;;;;4978048;28;20233;-85
2023/04/10 06:25:58;;;;;;;27.70;24.93;;;;;;;;;;4992702;28;20746;-86
2023/04/10 06:28:26;;;;;;;27.33;24.50;;;;;;;;;;4975228;28;20228;-84
2023/04/10 06:30:56;;;;;;;27.43;24.63;;;;;;;;;;4940805;28;20221;-83
2023/04/10 06:33:29;;;;;;;29.03;23.40;;;;;;;;;;4980360;28;20229;-85
2023/04/10 06:35:56;;;;;;;26.40;23.53;;;;;;;;;;4962320;28;20233;-84
2023/04/10 06:38:23;;;;;;;26.43;23.60;;;;;;;;;;4977129;28;20253;-85
2023/04/10 06:40:53;;;;;;;26.33;23.70;;;;;;;;;;4990164;28;20217;-84
2023/04/10 06:43:21;;;;;;;26.57;23.87;;;;;;;;;;4980522;28;20222;-85
2023/04/10 06:45:47;;;;;;;25.60;23.00;;;;;;;;;;4951512;28;20226;-84
2023/04/10 06:48:15;;;;;;;26.37;23.67;;;;;;;;;;4964251;28;20317;-86
2023/04/10 06:50:40;;;;;;;24.60;22.10;;;;;;;;;;4994192;28;20252;-86
2023/04/10 06:53:09;;;;;;;25.00;22.40;;;;;;;;;;4968104;28;20874;-86
2023/04/10 06:55:36;;;;;;;26.37;23.40;;;;;;;;;;4978569;28;21283;-86
2023/04/10 06:58:07;;;;;;;24.73;22.03;;;;;;;;;;4976427;28;20217;-86
2023/04/10 07:00:35;;;;;;;24.43;21.83;;;;;;;;;;4977314;28;20221;-87
2023/04/10 07:03:01;;;;;;;24.30;21.77;;;;;;;;;;4960897;28;20598;-85
2023/04/10 07:05:26;;;;;;;24.37;21.97;;;;;;;;;;4990840;28;20564;-84
2023/04/10 07:07:52;;;;;;;24.30;21.80;;;;;;;;;;5001324;28;20217;-84
2023/04/10 07:10:17;;;;;;;23.80;21.60;;;;;;;;;;4980749;28;20549;-84
2023/04/10 07:12:45;;;;;;;23.10;20.80;;;;;;;;;;4974898;28;20217;-84
2023/04/10 07:15:11;;;;;;;22.87;20.57;;;;;;;;;;4990095;28;20600;-85
2023/04/10 07:17:37;;;;;;;22.60;20.23;;;;;;;;;;4977613;28;20218;-85
2023/04/10 07:20:06;;;;;;;22.17;20.07;;;;;;;;;;5006436;28;20291;-84
2023/04/10 07:22:35;;;;;;;23.17;20.73;;;;;;;;;;4995904;28;20225;-84
2023/04/10 07:25:00;;;;;;;22.97;20.60;;;;;;;;;;4969950;28;20233;-84
2023/04/10 07:27:26;;;;;;;20.87;18.87;;;;;;;;;;4973881;28;20217;-85
2023/04/10 07:29:53;;;;;;;21.57;19.27;;;;;;;;;;4972507;28;20229;-85
2023/04/10 07:32:19;;;;;;;21.93;19.73;;;;;;;;;;4995377;28;20221;-85
2023/04/10 07:34:49;;;;;;;21.90;19.70;;;;;;;;;;4962181;28;20225;-85
2023/04/10 07:37:20;;;;;;;21.17;18.97;;;;;;;;;;4992360;28;20256;-84
2023/04/10 07:39:46;;;;;;;20.23;18.23;;;;;;;;;;4977419;28;20225;-87
2023/04/10 07:42:11;;;;;;;20.43;18.53;;;;;;;;;;4979428;28;20313;-86
2023/04/10 07:44:37;;;;;;;20.77;18.73;;;;;;;;;;4984043;28;20596;-86
2023/04/10 07:47:04;;;;;;;20.23;18.23;;;;;;;;;;4974047;28;20658;-84
2023/04/10 07:49:35;;;;;;;20.60;18.50;;;;;;;;;;4957864;28;20779;-85
2023/04/10 07:52:01;;;;;;;19.33;17.53;;;;;;;;;;4988669;28;20320;-85
2023/04/10 07:54:31;;;;;;;19.70;17.80;;;;;;;;;;4979705;28;20279;-85
2023/04/10 07:56:56;;;;;;;19.67;17.40;;;;;;;;;;4975918;28;20225;-83
2023/04/10 07:59:25;;;;;;;18.83;17.07;;;;;;;;;;4972347;28;20817;-85
2023/04/10 08:01:56;;;;;;;18.23;16.43;;;;;;;;;;4992521;28;20312;-84
2023/04/10 08:04:22;;;;;;;19.00;17.00;;;;;;;;;;4993773;28;20225;-87
2023/04/10 08:06:49;;;;;;;19.20;17.30;;;;;;;;;;4980124;28;20252;-85
2023/04/10 08:09:17;;;;;;;19.37;16.93;;;;;;;;;;4994845;28;20225;-86
2023/04/10 08:11:43;;;;;;;18.30;16.60;;;;;;;;;;4968786;28;20252;-86
2023/04/10 08:14:09;;;;;;;17.67;16.07;;;;;;;;;;4976380;28;20593;-88
2023/04/10 08:16:38;;;;;;;17.90;16.17;;;;;;;;;;4968910;28;20221;-88
2023/04/10 08:19:13;;;;;;;17.70;16.00;;;;;;;;;;4963986;28;20346;-86
2023/04/10 08:21:54;;;;;;;17.57;16.03;;;;;;;;;;4969225;28;20244;-87
2023/04/10 08:24:44;;;;;;;16.90;15.20;;;;;;;;;;4990622;28;20247;-86
2023/04/10 08:27:10;;;;;;;16.80;15.17;;;;;;;;;;5000030;28;20224;-87
2023/04/10 08:29:38;;;;;;;16.67;14.97;;;;;;;;;;4999047;28;20225;-87
2023/04/10 08:32:04;;;;;;;17.23;15.43;;;;;;;;;;4978455;28;20222;-87
2023/04/10 08:34:32;;;;;;;16.83;15.23;;;;;;;;;;4979905;28;20232;-86
2023/04/10 08:36:58;;;;;;;16.40;14.70;;;;;;;;;;4977138;28;20316;-87
2023/04/10 08:39:24;;;;;;;15.67;14.23;;;;;;;;;;4965671;28;20356;-86
2023/04/10 08:41:51;;;;;;;15.73;14.13;;;;;;;;;;4975086;28;20628;-87
2023/04/10 08:44:19;;;;;;;15.50;14.00;;;;;;;;;;4944763;28;20231;-87
2023/04/10 08:46:45;;;;;;;15.27;13.87;;;;;;;;;;4966555;28;20597;-86
2023/04/10 08:49:22;;;;;;;15.43;13.83;;;;;;;;;;4962315;28;20729;-86
2023/04/10 08:51:57;;;;;;;14.77;13.38;;;;;;;;;;4960889;28;20213;-83
2023/04/10 08:54:31;;;;;;;15.35;13.95;;;;;;;;;;4993225;28;20232;-82
2023/04/10 08:57:02;;;;;;;14.57;13.13;;;;;;;;;;4979479;28;20221;-83
2023/04/10 08:59:30;;;;;;;15.27;13.87;;;;;;;;;;4994572;28;20224;-83
2023/04/10 09:01:59;;;;;;;14.13;12.83;;;;;;;;;;4970233;28;20225;-84
2023/04/10 09:04:25;;;;;;;13.75;12.43;;;;;;;;;;4984494;28;20287;-85
2023/04/10 09:06:51;;;;;;;13.77;12.48;;;;;;;;;;5001355;28;20245;-84
2023/04/10 09:09:17;;;;;;;13.30;12.10;;;;;;;;;;4975016;28;20252;-84
2023/04/10 09:11:54;;;;;;;11.95;10.85;;;;;;;;;;4985799;28;20277;-83
2023/04/10 09:14:25;;;;;;;13.43;12.07;;;;;;;;;;4995970;28;20225;-85
2023/04/10 09:16:54;;;;;;;13.35;12.07;;;;;;;;;;4980806;28;20758;-84
2023/04/10 09:19:32;;;;;;;12.50;11.30;;;;;;;;;;4975517;28;20229;-84
2023/04/10 09:21:58;;;;;;;12.43;11.25;;;;;;;;;;4978177;28;20235;-82
2023/04/10 09:24:23;;;;;;;12.25;11.00;;;;;;;;;;5007509;28;20221;-86
2023/04/10 09:26:49;;;;;;;11.80;10.77;;;;;;;;;;4960074;28;20317;-83
2023/04/10 09:29:15;;;;;;;11.55;10.50;;;;;;;;;;4965494;28;20225;-86
2023/04/10 09:31:42;;;;;;;12.25;11.05;;;;;;;;;;4949705;28;20225;-85
2023/04/10 09:34:09;;;;;;;11.02;10.02;;;;;;;;;;4973412;28;20227;-86
2023/04/10 09:36:37;;;;;;;10.95;9.95;;;;;;;;;;4992160;28;20232;-85
2023/04/10 09:39:04;;;;;;;10.65;9.65;;;;;;;;;;4973838;28;20304;-83
2023/04/10 09:41:31;;;;;;;11.85;10.85;;;;;;;;;;4987975;28;20221;-86
2023/04/10 09:44:10;;;;;;;10.27;9.40;;;;;;;;;;4973886;28;20833;-86
2023/04/10 09:46:40;;;;;;;9.73;8.93;;;;;;;;;;5007294;28;20271;-85
2023/04/10 09:49:06;;;;;;;9.65;8.75;;;;;;;;;;4992234;28;20263;-85
2023/04/10 09:51:38;;;;;;;10.15;9.25;;;;;;;;;;4943688;28;20218;-86
2023/04/10 09:54:06;;;;;;;10.32;9.40;;;;;;;;;;4993884;28;20229;-86
2023/04/10 09:56:37;;;;;;;9.90;9.00;;;;;;;;;;4964277;28;20286;-85
2023/04/10 09:59:05;;;;;;;10.13;9.13;;;;;;;;;;4992188;28;20256;-83
2023/04/10 10:01:35;;;;;;;10.27;9.40;;;;;;;;;;5008575;28;20236;-84
2023/04/10 10:04:03;;;;;;;10.10;9.10;;;;;;;;;;4993323;28;20307;-83
2023/04/10 10:06:30;;;;;;;9.85;9.05;;;;;;;;;;4968905;28;20742;-86
2023/04/10 10:09:00;;;;;;;9.57;8.77;;;;;;;;;;4978113;28;20230;-85
2023/04/10 10:11:26;;;;;;;9.55;8.32;;;;;;;;;;4970528;28;20224;-85
2023/04/10 10:13:55;;;;;;;9.52;8.73;;;;;;;;;;4991657;28;20232;-83
2023/04/10 10:16:26;;;;;;;9.23;8.40;;;;;;;;;;4985332;28;20225;-83
2023/04/10 10:19:03;;;;;;;8.80;8.10;;;;;;;;;;4993566;28;20248;-84
2023/04/10 10:21:29;;;;;;;9.27;8.32;;;;;;;;;;5024143;28;20608;-84
2023/04/10 10:24:00;;;;;;;9.80;8.98;;;;;;;;;;5013278;28;20249;-84
2023/04/10 10:26:27;;;;;;;9.40;8.50;;;;;;;;;;4992224;28;20230;-83
2023/04/10 10:28:55;;;;;;;8.15;7.45;;;;;;;;;;4989211;28;20236;-85
2023/04/10 10:31:22;;;;;;;9.27;8.40;;;;;;;;;;5023665;28;20217;-86
2023/04/10 10:33:53;;;;;;;8.57;7.88;;;;;;;;;;4975878;28;20213;-84
2023/04/10 10:36:19;;;;;;;8.77;8.07;;;;;;;;;;4995275;28;20229;-83
2023/04/10 10:39:20;;;;;;;9.38;8.57;;;;;;;;;;4990513;28;20292;-84
2023/04/10 10:41:53;;;;;;;8.23;7.53;;;;;;;;;;4990599;28;20220;-86
2023/04/10 10:44:24;;;;;;;6.78;6.18;;;;;;;;;;5022500;28;20237;-86
2023/04/10 10:47:16;;;;;;;7.30;6.70;;;;;;;;;;5022924;28;20236;-85
2023/04/10 10:49:55;;;;;;;7.50;6.90;;;;;;;;;;5012208;28;20217;-84
2023/04/10 10:52:45;;;;;;;7.05;6.45;;;;;;;;;;5005608;28;20224;-81
2023/04/10 10:55:35;;;;;;;7.10;6.50;;;;;;;;;;4991947;28;20253;-82
2023/04/10 10:58:03;;;;;;;8.50;7.28;;;;;;;;;;5007411;28;20217;-84
2023/04/10 11:00:50;;;;;;;7.30;6.60;;;;;;;;;;4977710;28;20221;-84
2023/04/10 11:03:16;;;;;;;7.00;6.30;;;;;;;;;;5007929;28;20221;-85
2023/04/10 11:06:05;;;;;;;7.60;7.00;;;;;;;;;;4994038;28;20291;-83
2023/04/10 11:08:47;;;;;;;6.20;5.70;;;;;;;;;;4955385;28;20225;-83
2023/04/10 11:11:19;;;;;;;8.82;8.02;;;;;;;;;;4999988;28;20230;-82
2023/04/10 11:13:57;;;;;;;7.43;6.72;;;;;;;;;;4982547;28;20308;-82
2023/04/10 11:16:23;;;;;;;6.38;5.88;;;;;;;;;;4996947;28;20871;-82
2023/04/10 11:18:50;;;;;;;6.40;5.80;;;;;;;;;;5024929;28;21131;-83
2023/04/10 11:21:19;;;;;;;8.00;7.30;;;;;;;;;;5007695;28;20252;-82
2023/04/10 11:23:57;;;;;;;7.43;6.72;;;;;;;;;;5023045;28;20236;-81
2023/04/10 11:26:40;;;;;;;7.20;6.50;;;;;;;;;;4977149;28;20645;-82
2023/04/10 11:29:15;;;;;;;7.47;6.78;;;;;;;;;;4992092;28;20221;-84
2023/04/10 11:31:42;;;;;;;7.82;7.22;;;;;;;;;;4992334;28;20227;-83
2023/04/10 11:34:09;;;;;;;7.88;7.18;;;;;;;;;;4958928;28;20226;-84
2023/04/10 11:36:38;;;;;;;7.85;6.95;;;;;;;;;;4975363;28;20221;-85
2023/04/10 11:39:17;;;;;;;7.65;7.05;;;;;;;;;;4988982;28;20324;-85
2023/04/10 11:41:44;;;;;;;6.97;6.28;;;;;;;;;;5004853;28;20223;-84
2023/04/10 11:44:12;;;;;;;6.78;6.10;;;;;;;;;;4968204;28;20232;-84
2023/04/10 11:46:47;;;;;;;6.20;5.70;;;;;;;;;;5009676;28;20261;-84
2023/04/10 11:49:26;;;;;;;6.78;6.28;;;;;;;;;;5028715;28;20228;-84
2023/04/10 11:51:52;;;;;;;7.15;6.55;;;;;;;;;;5041908;28;20224;-85
2023/04/10 11:54:19;;;;;;;6.50;5.90;;;;;;;;;;5025310;28;20236;-83
2023/04/10 11:57:07;;;;;;;7.05;6.45;;;;;;;;;;5041517;28;20252;-83
2023/04/10 11:59:35;;;;;;;6.05;5.55;;;;;;;;;;5002662;28;20221;-84
2023/04/10 12:02:11;;;;;;;6.63;5.70;;;;;;;;;;5001978;28;20224;-83
2023/04/10 12:04:37;;;;;;;6.18;5.57;;;;;;;;;;4983143;28;20282;-84
2023/04/10 12:07:05;;;;;;;5.72;5.03;;;;;;;;;;4982509;28;20320;-82
2023/04/10 12:09:31;;;;;;;5.63;5.13;;;;;;;;;;5008800;28;20303;-83
2023/04/10 12:12:03;;;;;;;6.55;5.95;;;;;;;;;;4989339;28;20261;-85
2023/04/10 12:14:36;;;;;;;5.80;5.30;;;;;;;;;;4957618;28;20231;-85
2023/04/10 12:17:03;;;;;;;6.22;5.70;;;;;;;;;;5007796;28;20296;-84
2023/04/10 12:19:31;;;;;;;6.38;5.80;;;;;;;;;;4992272;28;20231;-83
2023/04/10 12:21:57;;;;;;;6.18;5.57;;;;;;;;;;4996380;28;20221;-85
2023/04/10 12:24:46;;;;;;;6.70;6.07;;;;;;;;;;5010431;28;20232;-83
2023/04/10 12:27:15;;;;;;;6.03;5.53;;;;;;;;;;5008462;28;20225;-84
2023/04/10 12:29:41;;;;;;;5.85;5.32;;;;;;;;;;5018643;28;20938;-84
2023/04/10 12:32:11;;;;;;;5.68;5.18;;;;;;;;;;5026339;28;20235;-82
2023/04/10 12:34:41;;;;;;;6.13;5.57;;;;;;;;;;5009560;28;20225;-80
2023/04/10 12:37:08;;;;;;;6.97;6.07;;;;;;;;;;5026891;28;20655;-82
2023/04/10 12:39:34;;;;;;;7.07;6.20;;;;;;;;;;5040532;28;20225;-82
2023/04/10 12:42:19;;;;;;;7.03;5.93;;;;;;;;;;5026566;28;20229;-82
2023/04/10 12:44:51;;;;;;;6.43;5.90;;;;;;;;;;4994464;28;20240;-81
2023/04/10 12:47:19;;;;;;;9.15;6.85;;;;;;;;;;5023739;28;20319;-83
2023/04/10 12:50:10;;;;;;;7.90;7.13;;;;;;;;;;4976400;28;20225;-81
2023/04/10 12:52:37;;;;;;;7.20;6.50;;;;;;;;;;5001225;28;20238;-81
2023/04/10 12:55:20;;;;;;;7.70;6.90;;;;;;;;;;4970275;28;20305;-82
2023/04/10 12:57:50;;;;;;;6.90;6.30;;;;;;;;;;5005287;28;20229;-82
2023/04/10 13:00:19;;;;;;;7.45;6.85;;;;;;;;;;5008877;28;20687;-83
2023/04/10 13:02:50;;;;;;;7.68;6.97;;;;;;;;;;4991292;28;20269;-81
2023/04/10 13:05:17;;;;;;;8.07;7.28;;;;;;;;;;5015049;28;20225;-86
2023/04/10 13:07:43;;;;;;;8.07;7.38;;;;;;;;;;5006749;28;20237;-82
2023/04/10 13:10:11;;;;;;;8.40;6.97;;;;;;;;;;4998858;28;20233;-83
2023/04/10 13:12:43;;;;;;;7.90;7.20;;;;;;;;;;5026142;28;20253;-83
2023/04/10 13:15:11;;;;;;;7.45;6.78;;;;;;;;;;5026727;28;20233;-80
2023/04/10 13:17:40;;;;;;;8.15;7.45;;;;;;;;;;5035231;28;20221;-83
2023/04/10 13:20:09;;;;;;;7.32;6.72;;;;;;;;;;5017884;28;20257;-83
2023/04/10 13:22:35;;;;;;;8.32;7.53;;;;;;;;;;4993060;28;20304;-84
2023/04/10 13:25:02;;;;;;;8.70;7.90;;;;;;;;;;4960459;28;20619;-83
2023/04/10 13:27:32;;;;;;;9.10;8.20;;;;;;;;;;4964255;28;20226;-82
2023/04/10 13:30:03;;;;;;;7.80;7.10;;;;;;;;;;5003094;28;20277;-84
2023/04/10 13:36:31;;;;;;;;;;;;;;;;;;;;;
2023/04/10 13:39:21;;;;;;;7.65;6.70;;;;;;;;;;4977334;23;20248;-76
2023/04/10 13:41:47;;;;;;;7.68;7.07;;;;;;;;;;4991677;28;20728;-78
2023/04/10 13:44:12;;;;;;;7.20;6.50;;;;;;;;;;5005481;28;20226;-76
2023/04/10 13:46:38;;;;;;;7.20;6.60;;;;;;;;;;4989840;28;20237;-78
2023/04/10 13:49:05;;;;;;;6.93;6.22;;;;;;;;;;5010572;28;20214;-74
2023/04/10 13:51:36;;;;;;;6.78;6.18;;;;;;;;;;4973049;28;20228;-75
2023/04/10 13:54:03;;;;;;;8.00;6.90;;;;;;;;;;4993164;28;20217;-75
2023/04/10 13:56:29;;;;;;;6.82;6.22;;;;;;;;;;4989123;28;20237;-75
2023/04/10 13:58:57;;;;;;;6.43;5.93;;;;;;;;;;4991972;28;20217;-76
2023/04/10 14:01:22;;;;;;;6.22;5.72;;;;;;;;;;5005074;28;20292;-76
2023/04/10 14:03:48;;;;;;;5.78;5.30;;;;;;;;;;4989928;28;20221;-76
2023/04/10 14:06:14;;;;;;;5.15;4.75;;;;;;;;;;4989197;28;20636;-75
2023/04/10 14:08:41;;;;;;;5.90;5.40;;;;;;;;;;4993472;28;20229;-75
2023/04/10 14:11:09;;;;;;;5.50;5.00;;;;;;;;;;4993780;28;20629;-75
2023/04/10 14:13:42;;;;;;;6.15;5.72;;;;;;;;;;5008868;28;20225;-74
2023/04/10 14:16:08;;;;;;;5.70;5.20;;;;;;;;;;4973456;28;20229;-75
2023/04/10 14:18:36;;;;;;;4.82;4.43;;;;;;;;;;4987624;28;20232;-73
2023/04/10 14:21:04;;;;;;;5.07;4.65;;;;;;;;;;4971772;28;20667;-78
2023/04/10 14:23:34;;;;;;;5.10;4.60;;;;;;;;;;4987495;28;20225;-73
2023/04/10 14:26:06;;;;;;;7.22;4.30;;;;;;;;;;4972189;28;20710;-75
2023/04/10 14:28:34;;;;;;;5.00;4.53;;;;;;;;;;5004346;28;20221;-73
2023/04/10 14:31:02;;;;;;;4.80;4.30;;;;;;;;;;4973340;28;20235;-75
2023/04/10 14:33:32;;;;;;;4.57;4.18;;;;;;;;;;4971399;28;20214;-74
2023/04/10 14:36:05;;;;;;;4.68;4.30;;;;;;;;;;4971889;28;20221;-75
2023/04/10 14:38:30;;;;;;;4.65;4.20;;;;;;;;;;4970590;28;20210;-74
2023/04/10 14:40:56;;;;;;;4.63;4.20;;;;;;;;;;4987127;28;20256;-75
2023/04/10 14:43:21;;;;;;;4.55;4.20;;;;;;;;;;4969760;28;20991;-74
2023/04/10 14:45:49;;;;;;;4.30;3.90;;;;;;;;;;5002401;28;20240;-74
2023/04/10 14:48:15;;;;;;;4.45;3.83;;;;;;;;;;5002812;28;20213;-74
2023/04/10 14:50:43;;;;;;;4.93;4.35;;;;;;;;;;4986745;28;20723;-75
2023/04/10 14:53:08;;;;;;;5.07;4.68;;;;;;;;;;4954049;28;20225;-75
2023/04/10 14:55:36;;;;;;;5.43;4.95;;;;;;;;;;4965534;28;20221;-76